Friday, October 31, 2014
09:12 UTC
  |  Log In   |  Register Free
Airport Search:

Livermore Municipal Airport
(KLVK)

FAA data valid effective September 18, 2014 - November 13, 2014 (unless otherwise noted).

 
 
 
 
 
 
 
 
 
 
 
 
 
 

Current Aviation Weather for Livermore Municipal Airport (KLVK)

The most recent METAR observation for KLVK was updated at: 0811
METAR Summary (Translated METAR)
KLVK
310753Z AUTO 25007KT 10SM CLR 16/12 A2991 RMK AO2 SLP125 T01560122 402890128 TSNO
KHWD
310754Z AUTO 20010KT 10SM BKN048 17/14 A2991 RMK AO2 SLP136 T01720139 402500150
(14.5 nm SW from KLVK)
KOAK
310753Z 20007KT 10SM FEW010 SCT180 17/12 A2991 RMK AO2 SLP129 T01720122 402170122
(19.1 nm NW from KLVK)
TAF Summary (Translated TAF)
KOAK
(19.1 nm NW from KLVK)
310538Z 3106/0112 26009KT P6SM FEW010 BKN180 FM310900 23007KT P6SM FEW010 OVC050 FM311400 16009KT P6SM -RA BKN025 OVC050 FM311800 21010KT P6SM -RA FEW020 SCT035 BKN050 FM312100 28010KT P6SM RA BKN035 BKN050 FM010600 25007KT P6SM -SHRA SCT035 BKN050
  Airport Weather Conditions for KLVK

 Current Weather at LVK
60° F
Fair
West winds at 8.1 mph
LVK NOAA Radar

Pressure: 29.91 in
Humidity: 80%
Wind: West at 8.1 MPH (7 KT)
Dew Point: 54.0°F
Visibility: 10.00 mi


Airport Weather Forecast for KLVK

Translated METAR and TAF for KLVK
Translated METAR for KLVK (0907 UTC 31 October 2014)
found at http://aviationweather.gov/adds/metars/
 
METAR text: KLVK 310853Z AUTO 24008KT 10SM BKN029 OVC034 16/12 A2991 RMK AO2 SLP126 T01610117 51005 TSNO
Conditions at: KLVK (LIVERMORE , CA, US) observed 0853 UTC 31 October 2014
Temperature: 16.1°C (61°F)
Dewpoint: 11.7°C (53°F) [RH = 75%]
Pressure (altimeter): 29.91 inches Hg (1013.0 mb)
[Sea-level pressure: 1012.6 mb]
Winds: from the WSW (240 degrees) at 9 MPH (8 knots; 4.2 m/s)
Visibility: 10 or more miles (16+ km)
Ceiling: 2900 feet AGL
Clouds: broken clouds at 2900 feet AGL
overcast cloud deck at 3400 feet AGL
Weather: automated observation with no human augmentation;
there may or may not be significant weather present at this time
Translated TAF for KLVK

There is no translated TAF available for this airport

Find All Airport Services Find A Hotel Find A Rental Car Find A Golf Course Find A Restaurant $100 Hamburger



FBO's on the Field
FBO Company Facility Photos Services Transportation Aviation Fuel Prices: Prices include tax
Catering Weather Repair Courtesy Rental Type 100LL JetA JetA+ MOGAS 8087
 
Livermore Municipal Airport

This FBO has not yet been rated
FS:Ascent
Last Updated: Oct-22
Login to update fuel prices
SS:
Contact Livermore Municipal AirportMore FBO Information
 
Add another FBO Facility Photos Catering Weather Repair Courtesy Rental Type 100LL JetA JetA+ MOGAS 8087
Services Transportation Aviation Fuel Prices: Prices include tax


model-print
model-print
model-print
model-print